Time;durP1;ratioP1;P1;durP2;ratioP2;P2;SDS_P1;SDS_P2;PMS_P1;PMS_P2;Temp;Humidity;BMP_temperature;BMP_pressure;BME280_temperature;BME280_humidity;BME280_pressure;Samples;Min_cycle;Max_cycle;Signal;HPM_P1;HPM_P2
2021/05/09 00:01:49;;;;;;;6.93;2.15;;;;;;;;;;6864808;28;20472;-88
2021/05/09 00:05:10;;;;;;;9.60;2.20;;;;;;;;;;6865105;28;20026;-88
2021/05/09 00:08:30;;;;;;;3.20;1.77;;;;;;;;;;6864654;28;20034;-88
2021/05/09 00:11:50;;;;;;;2.88;1.70;;;;;;;;;;6861056;28;20034;-89
2021/05/09 00:15:14;;;;;;;6.43;1.98;;;;;;;;;;6864483;28;20050;-89
2021/05/09 00:18:34;;;;;;;3.10;1.50;;;;;;;;;;6841310;28;20061;-88
2021/05/09 00:21:55;;;;;;;4.75;1.70;;;;;;;;;;6864493;28;20035;-88
2021/05/09 00:25:15;;;;;;;3.08;1.58;;;;;;;;;;6864373;28;20125;-88
2021/05/09 00:28:36;;;;;;;9.82;1.90;;;;;;;;;;6865351;23;20110;-89
2021/05/09 00:31:57;;;;;;;2.10;1.60;;;;;;;;;;6863492;28;20045;-86
2021/05/09 00:35:17;;;;;;;1.70;1.50;;;;;;;;;;6864324;28;20023;-86
2021/05/09 00:38:37;;;;;;;7.40;2.10;;;;;;;;;;6863730;28;20031;-87
2021/05/09 00:42:02;;;;;;;6.47;2.00;;;;;;;;;;6863783;28;20464;-87
2021/05/09 00:45:23;;;;;;;2.20;1.63;;;;;;;;;;6863921;28;20376;-88
2021/05/09 00:48:43;;;;;;;5.72;2.10;;;;;;;;;;6863419;28;20464;-89
2021/05/09 00:52:05;;;;;;;8.02;1.95;;;;;;;;;;6851477;28;20477;-88
2021/05/09 00:55:27;;;;;;;5.43;1.95;;;;;;;;;;6863202;28;20031;-89
2021/05/09 00:58:48;;;;;;;5.55;1.80;;;;;;;;;;6851023;28;20392;-89
2021/05/09 01:02:09;;;;;;;5.20;1.63;;;;;;;;;;6866440;28;20487;-89
2021/05/09 01:05:30;;;;;;;5.00;1.45;;;;;;;;;;6846766;28;20061;-88
2021/05/09 01:08:52;;;;;;;2.97;1.63;;;;;;;;;;6852212;28;20098;-89
2021/05/09 01:12:13;;;;;;;3.03;1.58;;;;;;;;;;6856080;28;20058;-89
2021/05/09 01:15:34;;;;;;;2.85;1.80;;;;;;;;;;6868392;28;20043;-88
2021/05/09 01:18:54;;;;;;;3.67;1.80;;;;;;;;;;6868748;28;20042;-88
2021/05/09 01:22:15;;;;;;;2.35;1.60;;;;;;;;;;6868909;28;20027;-88
2021/05/09 01:25:35;;;;;;;6.00;1.98;;;;;;;;;;6868414;28;20463;-87
2021/05/09 01:28:56;;;;;;;6.38;1.50;;;;;;;;;;6868229;28;20184;-89
2021/05/09 01:32:16;;;;;;;7.78;2.90;;;;;;;;;;6854452;28;20037;-88
2021/05/09 01:35:37;;;;;;;2.78;1.48;;;;;;;;;;6869083;28;20392;-88
2021/05/09 01:38:57;;;;;;;5.82;1.60;;;;;;;;;;6868005;28;20027;-88
2021/05/09 01:42:17;;;;;;;3.85;2.00;;;;;;;;;;6866850;28;20046;-88
2021/05/09 01:45:38;;;;;;;3.03;1.48;;;;;;;;;;6867582;28;20038;-88
2021/05/09 01:48:58;;;;;;;3.75;1.70;;;;;;;;;;6867559;28;20118;-87
2021/05/09 01:52:19;;;;;;;3.95;1.73;;;;;;;;;;6868278;28;20037;-87
2021/05/09 01:55:40;;;;;;;1.95;1.55;;;;;;;;;;6868179;28;20489;-87
2021/05/09 01:59:00;;;;;;;2.83;1.80;;;;;;;;;;6867491;28;20097;-87
2021/05/09 02:02:20;;;;;;;2.17;1.50;;;;;;;;;;6867668;28;20034;-87
2021/05/09 02:05:41;;;;;;;4.18;1.60;;;;;;;;;;6867840;28;20031;-88
2021/05/09 02:09:01;;;;;;;2.00;1.30;;;;;;;;;;6867637;28;20070;-87
2021/05/09 02:12:22;;;;;;;3.55;1.80;;;;;;;;;;6850058;28;20384;-87
2021/05/09 02:15:42;;;;;;;1.85;1.48;;;;;;;;;;6867070;28;20074;-88
2021/05/09 02:19:03;;;;;;;1.73;1.38;;;;;;;;;;6866658;28;20081;-88
2021/05/09 02:22:23;;;;;;;3.35;1.67;;;;;;;;;;6867473;28;20449;-88
2021/05/09 02:25:44;;;;;;;2.75;1.63;;;;;;;;;;6867565;28;20034;-88
2021/05/09 02:29:04;;;;;;;2.38;1.30;;;;;;;;;;6866507;28;20428;-88
2021/05/09 02:32:25;;;;;;;1.70;1.48;;;;;;;;;;6867064;28;20425;-87
2021/05/09 02:35:45;;;;;;;2.08;1.35;;;;;;;;;;6866788;28;20050;-87
2021/05/09 02:39:06;;;;;;;3.95;1.77;;;;;;;;;;6867009;28;20461;-87
2021/05/09 02:42:26;;;;;;;2.70;1.50;;;;;;;;;;6850131;28;20462;-89
2021/05/09 02:45:46;;;;;;;6.70;1.92;;;;;;;;;;6866558;28;20037;-90
2021/05/09 02:49:07;;;;;;;2.63;1.55;;;;;;;;;;6866679;28;20049;-89
2021/05/09 02:52:27;;;;;;;4.57;1.77;;;;;;;;;;6866886;28;20023;-90
2021/05/09 02:55:48;;;;;;;4.05;1.48;;;;;;;;;;6881564;28;20543;-89
2021/05/09 02:59:08;;;;;;;2.67;1.65;;;;;;;;;;6866037;28;20616;-90
2021/05/09 03:02:29;;;;;;;2.35;1.40;;;;;;;;;;6866738;28;20045;-90
2021/05/09 03:05:49;;;;;;;6.35;1.80;;;;;;;;;;6865972;28;20042;-90
2021/05/09 03:09:09;;;;;;;1.42;1.20;;;;;;;;;;6852577;28;20109;-90
2021/05/09 03:12:30;;;;;;;2.70;1.63;;;;;;;;;;6866559;28;20030;-90
2021/05/09 03:15:50;;;;;;;3.75;1.65;;;;;;;;;;6865525;28;20604;-91
2021/05/09 03:19:11;;;;;;;2.22;1.35;;;;;;;;;;6865594;28;20428;-90
2021/05/09 03:22:31;;;;;;;1.40;1.30;;;;;;;;;;6865728;28;20050;-91
2021/05/09 03:25:52;;;;;;;4.30;1.60;;;;;;;;;;6866144;28;20031;-90
2021/05/09 03:29:12;;;;;;;4.40;1.67;;;;;;;;;;6866037;28;20101;-91
2021/05/09 03:32:32;;;;;;;2.42;1.40;;;;;;;;;;6865754;28;20144;-90
2021/05/09 03:35:53;;;;;;;3.15;1.58;;;;;;;;;;6865194;28;20474;-90
2021/05/09 03:39:13;;;;;;;3.33;1.83;;;;;;;;;;6865378;28;20440;-91
2021/05/09 03:42:34;;;;;;;2.45;1.60;;;;;;;;;;6864916;28;20062;-91
2021/05/09 03:45:54;;;;;;;4.22;1.60;;;;;;;;;;6865508;28;20034;-91
2021/05/09 03:49:15;;;;;;;1.30;1.20;;;;;;;;;;6864893;28;20070;-91
2021/05/09 03:52:35;;;;;;;2.35;1.40;;;;;;;;;;6865048;28;20026;-91
2021/05/09 03:55:57;;;;;;;5.20;1.70;;;;;;;;;;6865824;28;20042;-91
2021/05/09 03:59:17;;;;;;;1.67;1.40;;;;;;;;;;6865244;28;20041;-91
2021/05/09 04:02:38;;;;;;;2.30;1.55;;;;;;;;;;6864665;28;20034;-91
2021/05/09 04:05:58;;;;;;;2.08;1.50;;;;;;;;;;6864791;28;20429;-92
2021/05/09 04:09:19;;;;;;;1.40;1.30;;;;;;;;;;6864677;28;20034;-91
2021/05/09 04:12:39;;;;;;;2.42;1.73;;;;;;;;;;6864807;28;20583;-91
2021/05/09 04:16:00;;;;;;;1.90;1.50;;;;;;;;;;6864708;28;20039;-92
2021/05/09 04:19:20;;;;;;;3.05;1.88;;;;;;;;;;6865020;28;20045;-91
2021/05/09 04:22:40;;;;;;;1.42;1.33;;;;;;;;;;6865483;28;20086;-90
2021/05/09 04:26:01;;;;;;;2.13;1.70;;;;;;;;;;6864918;28;20421;-91
2021/05/09 04:29:21;;;;;;;1.65;1.30;;;;;;;;;;6848738;28;20154;-89
2021/05/09 04:32:42;;;;;;;3.05;1.45;;;;;;;;;;6864921;28;20067;-89
2021/05/09 04:36:03;;;;;;;2.85;1.50;;;;;;;;;;6864362;28;20116;-89
2021/05/09 04:39:24;;;;;;;8.35;1.63;;;;;;;;;;6864830;28;20035;-89
2021/05/09 04:42:44;;;;;;;2.45;1.40;;;;;;;;;;6865511;28;20026;-89
2021/05/09 04:46:05;;;;;;;2.13;1.73;;;;;;;;;;6866520;28;20027;-88
2021/05/09 04:49:26;;;;;;;1.85;1.58;;;;;;;;;;6869857;28;20041;-88
2021/05/09 04:52:47;;;;;;;5.82;2.00;;;;;;;;;;6869340;28;20030;-89
2021/05/09 04:56:07;;;;;;;1.88;1.40;;;;;;;;;;6869768;28;20039;-89
2021/05/09 04:59:28;;;;;;;2.00;1.52;;;;;;;;;;6870282;28;20018;-89
2021/05/09 05:02:48;;;;;;;2.92;1.50;;;;;;;;;;6870141;28;20077;-89
2021/05/09 05:06:09;;;;;;;1.83;1.42;;;;;;;;;;6884252;28;20464;-89
2021/05/09 05:09:29;;;;;;;2.50;1.92;;;;;;;;;;6869301;28;20165;-89
2021/05/09 05:12:49;;;;;;;2.67;1.50;;;;;;;;;;6869355;28;20041;-89
2021/05/09 05:16:10;;;;;;;2.42;1.50;;;;;;;;;;6868746;28;20066;-90
2021/05/09 05:19:30;;;;;;;1.50;1.40;;;;;;;;;;6868882;28;20026;-89
2021/05/09 05:22:50;;;;;;;1.60;1.48;;;;;;;;;;6868384;28;20118;-89
2021/05/09 05:26:11;;;;;;;4.28;1.45;;;;;;;;;;6868538;28;20508;-91
2021/05/09 05:29:31;;;;;;;1.77;1.45;;;;;;;;;;6868710;28;20139;-91
2021/05/09 05:32:52;;;;;;;3.53;1.63;;;;;;;;;;6868221;28;20030;-90
2021/05/09 05:36:12;;;;;;;15.20;3.00;;;;;;;;;;6866585;28;20069;-89
2021/05/09 05:39:33;;;;;;;3.00;2.72;;;;;;;;;;6868282;28;20030;-89
2021/05/09 05:42:53;;;;;;;6.72;3.28;;;;;;;;;;6867547;28;20445;-90
2021/05/09 05:46:14;;;;;;;8.57;6.53;;;;;;;;;;6867123;28;20455;-90
2021/05/09 05:49:34;;;;;;;8.70;6.60;;;;;;;;;;6871562;28;20043;-90
2021/05/09 05:52:54;;;;;;;6.60;6.10;;;;;;;;;;6867008;28;20073;-90
2021/05/09 05:56:15;;;;;;;4.22;2.97;;;;;;;;;;6866618;28;20504;-88
2021/05/09 05:59:35;;;;;;;6.15;2.70;;;;;;;;;;6867527;28;20027;-86
2021/05/09 06:02:55;;;;;;;3.95;2.67;;;;;;;;;;6867550;28;20078;-87
2021/05/09 06:06:16;;;;;;;5.93;2.72;;;;;;;;;;6867024;28;20451;-86
2021/05/09 06:09:36;;;;;;;3.67;2.35;;;;;;;;;;6869787;28;20042;-88
2021/05/09 06:12:57;;;;;;;12.00;2.60;;;;;;;;;;6867211;28;20508;-87
2021/05/09 06:16:17;;;;;;;4.82;3.60;;;;;;;;;;6867601;28;20027;-87
2021/05/09 06:19:38;;;;;;;15.13;6.63;;;;;;;;;;6867875;28;20023;-86
2021/05/09 06:23:03;;;;;;;11.18;5.22;;;;;;;;;;6866618;28;20537;-86
2021/05/09 06:26:23;;;;;;;7.50;5.00;;;;;;;;;;6867310;28;20055;-86
2021/05/09 06:29:43;;;;;;;4.78;2.90;;;;;;;;;;6867044;28;20076;-86
2021/05/09 06:33:04;;;;;;;11.15;3.00;;;;;;;;;;6866607;28;20067;-86
2021/05/09 06:36:24;;;;;;;4.43;2.95;;;;;;;;;;6866922;28;20027;-86
2021/05/09 06:39:45;;;;;;;3.75;2.90;;;;;;;;;;6866817;28;20034;-86
2021/05/09 06:43:08;;;;;;;4.43;2.75;;;;;;;;;;6866374;28;20117;-86
2021/05/09 06:46:29;;;;;;;5.88;3.40;;;;;;;;;;6866248;28;20069;-86
2021/05/09 06:49:49;;;;;;;3.85;3.00;;;;;;;;;;6865838;28;20480;-86
2021/05/09 06:53:10;;;;;;;4.10;2.80;;;;;;;;;;6865304;28;20034;-88
2021/05/09 06:56:31;;;;;;;4.90;2.78;;;;;;;;;;6866175;28;20121;-87
2021/05/09 06:59:52;;;;;;;3.53;2.80;;;;;;;;;;6865340;28;20026;-88
2021/05/09 07:03:12;;;;;;;6.82;3.05;;;;;;;;;;6865073;28;20062;-86
2021/05/09 07:06:33;;;;;;;3.75;2.60;;;;;;;;;;6866156;28;20034;-86
2021/05/09 07:09:54;;;;;;;7.28;2.75;;;;;;;;;;6865116;28;20046;-86
2021/05/09 07:13:14;;;;;;;4.43;2.55;;;;;;;;;;6865948;28;20035;-87
2021/05/09 07:16:36;;;;;;;3.30;2.20;;;;;;;;;;6866011;28;20062;-86
2021/05/09 07:19:56;;;;;;;6.05;2.75;;;;;;;;;;6864810;28;20101;-87
2021/05/09 07:23:17;;;;;;;5.97;2.35;;;;;;;;;;6864572;28;20417;-86
2021/05/09 07:26:37;;;;;;;6.07;2.40;;;;;;;;;;6864633;28;20038;-86
2021/05/09 07:29:58;;;;;;;3.65;1.85;;;;;;;;;;6861228;28;20059;-87
2021/05/09 07:33:18;;;;;;;2.92;1.92;;;;;;;;;;6864179;28;20034;-85
2021/05/09 07:36:39;;;;;;;7.03;2.33;;;;;;;;;;6863808;28;20565;-86
2021/05/09 07:39:59;;;;;;;5.75;2.10;;;;;;;;;;6863396;28;20117;-85
2021/05/09 07:43:20;;;;;;;7.38;2.28;;;;;;;;;;6862619;28;20038;-86
2021/05/09 07:46:40;;;;;;;5.60;1.90;;;;;;;;;;6864588;28;20073;-86
2021/05/09 07:50:01;;;;;;;8.18;2.08;;;;;;;;;;6863258;28;20031;-86
2021/05/09 07:53:21;;;;;;;5.70;2.00;;;;;;;;;;6863764;28;20090;-86
2021/05/09 07:56:41;;;;;;;5.07;2.22;;;;;;;;;;6863035;28;20535;-85
2021/05/09 08:00:07;;;;;;;6.28;2.05;;;;;;;;;;6863203;28;20097;-86
2021/05/09 08:03:35;;;;;;;6.57;2.13;;;;;;;;;;6847342;28;20047;-86
2021/05/09 08:06:55;;;;;;;4.40;2.38;;;;;;;;;;6862643;28;20041;-85
2021/05/09 08:10:16;;;;;;;6.88;2.15;;;;;;;;;;6869704;28;20030;-86
2021/05/09 08:13:36;;;;;;;3.20;2.00;;;;;;;;;;6868984;28;20452;-87
2021/05/09 08:16:57;;;;;;;6.20;1.83;;;;;;;;;;6855613;28;20424;-88
2021/05/09 08:20:17;;;;;;;4.55;2.15;;;;;;;;;;6868321;28;20471;-86
2021/05/09 08:23:43;;;;;;;4.35;1.75;;;;;;;;;;6859496;28;20469;-86
2021/05/09 08:27:05;;;;;;;5.38;2.00;;;;;;;;;;6861133;28;20030;-88
2021/05/09 08:30:25;;;;;;;4.75;2.40;;;;;;;;;;6850913;28;20126;-87
2021/05/09 08:33:48;;;;;;;8.50;1.50;;;;;;;;;;6867601;28;20447;-87
2021/05/09 08:37:09;;;;;;;7.32;1.83;;;;;;;;;;6866879;28;20042;-87
2021/05/09 08:40:29;;;;;;;5.32;1.88;;;;;;;;;;6862453;28;20117;-87
2021/05/09 08:43:50;;;;;;;6.20;2.25;;;;;;;;;;6863472;28;20050;-87
2021/05/09 08:47:10;;;;;;;4.28;1.83;;;;;;;;;;6861956;28;20042;-87
2021/05/09 08:50:31;;;;;;;5.90;1.98;;;;;;;;;;6846064;28;20360;-87
2021/05/09 08:53:53;;;;;;;3.85;2.17;;;;;;;;;;6845811;28;20456;-87
2021/05/09 08:57:15;;;;;;;6.63;1.90;;;;;;;;;;6846239;28;20380;-88
2021/05/09 09:00:35;;;;;;;3.30;2.00;;;;;;;;;;6862320;28;20102;-88
2021/05/09 09:03:55;;;;;;;8.70;1.90;;;;;;;;;;6875098;28;20058;-87
2021/05/09 09:07:17;;;;;;;2.17;1.67;;;;;;;;;;6865247;28;20039;-87
2021/05/09 09:10:51;;;;;;;2.55;1.50;;;;;;;;;;6861520;28;20038;-87
2021/05/09 09:14:12;;;;;;;2.78;1.67;;;;;;;;;;6862562;28;20121;-85
2021/05/09 09:17:32;;;;;;;4.70;1.75;;;;;;;;;;6858990;28;20033;-86
2021/05/09 09:20:53;;;;;;;5.93;1.95;;;;;;;;;;6862282;28;20049;-86
2021/05/09 09:24:14;;;;;;;14.23;1.98;;;;;;;;;;6864646;28;20453;-86
2021/05/09 09:27:42;;;;;;;9.68;1.83;;;;;;;;;;6864663;28;20118;-86
2021/05/09 09:31:02;;;;;;;5.32;1.50;;;;;;;;;;6847921;28;20388;-85
2021/05/09 09:34:36;;;;;;;5.95;1.60;;;;;;;;;;6868043;28;20476;-86
2021/05/09 09:37:57;;;;;;;5.88;1.58;;;;;;;;;;6866830;28;20031;-87
2021/05/09 09:41:22;;;;;;;4.13;1.80;;;;;;;;;;6867466;28;20109;-87
2021/05/09 09:44:42;;;;;;;3.30;1.70;;;;;;;;;;6866015;28;20023;-88
2021/05/09 09:48:03;;;;;;;6.30;1.50;;;;;;;;;;6864900;28;20077;-89
2021/05/09 09:51:25;;;;;;;4.47;1.60;;;;;;;;;;6864774;28;20023;-88
2021/05/09 09:54:46;;;;;;;3.95;1.60;;;;;;;;;;6879420;28;20058;-88
2021/05/09 09:58:07;;;;;;;4.43;2.08;;;;;;;;;;6861753;28;20106;-88
2021/05/09 10:01:31;;;;;;;6.85;1.70;;;;;;;;;;6862671;28;20043;-88
2021/05/09 10:04:52;;;;;;;5.65;1.63;;;;;;;;;;6866439;28;20130;-88
2021/05/09 10:08:13;;;;;;;8.32;1.90;;;;;;;;;;6866664;28;20043;-88
2021/05/09 10:11:33;;;;;;;4.47;1.75;;;;;;;;;;6872997;28;20085;-88
2021/05/09 10:14:54;;;;;;;6.30;2.10;;;;;;;;;;6878518;28;20062;-88
2021/05/09 10:18:15;;;;;;;3.50;1.63;;;;;;;;;;6876139;28;20046;-88
2021/05/09 10:21:36;;;;;;;10.77;2.10;;;;;;;;;;6865836;28;20400;-88
2021/05/09 10:24:57;;;;;;;3.05;2.08;;;;;;;;;;6867069;28;20468;-88
2021/05/09 10:28:20;;;;;;;3.90;1.65;;;;;;;;;;6865962;28;20026;-88
2021/05/09 10:31:40;;;;;;;5.03;1.63;;;;;;;;;;6866604;28;20069;-88
2021/05/09 10:35:03;;;;;;;6.13;1.90;;;;;;;;;;6864880;28;20385;-88
2021/05/09 10:38:23;;;;;;;3.60;1.80;;;;;;;;;;6865263;28;20035;-88
2021/05/09 10:41:52;;;;;;;4.47;1.98;;;;;;;;;;6872053;28;20035;-88
2021/05/09 10:45:28;;;;;;;;;;;;;;;;;;6865618;28;20069;-88
2021/05/09 10:49:09;;;;;;;4.65;1.90;;;;;;;;;;6859706;28;20398;-90
2021/05/09 10:52:42;;;;;;;5.22;1.73;;;;;;;;;;6865876;28;20365;-88
2021/05/09 10:56:03;;;;;;;3.17;1.40;;;;;;;;;;6866099;28;20062;-88
2021/05/09 10:59:55;;;;;;;3.92;2.17;;;;;;;;;;6866132;28;20027;-88
2021/05/09 11:03:40;;;;;;;3.95;2.08;;;;;;;;;;6866436;28;20023;-88
2021/05/09 11:07:00;;;;;;;2.20;1.65;;;;;;;;;;6858432;28;20047;-88
2021/05/09 11:10:38;;;;;;;6.43;2.00;;;;;;;;;;6867008;28;20059;-88
2021/05/09 11:13:58;;;;;;;3.13;1.98;;;;;;;;;;6865595;28;20109;-88
2021/05/09 11:17:19;;;;;;;2.83;1.58;;;;;;;;;;6865760;28;20035;-88
2021/05/09 11:20:53;;;;;;;5.00;1.90;;;;;;;;;;6865532;28;20082;-88
2021/05/09 11:24:24;;;;;;;3.72;1.73;;;;;;;;;;6865482;28;20065;-88
2021/05/09 11:27:45;;;;;;;3.05;1.80;;;;;;;;;;6865023;28;20550;-88
2021/05/09 11:31:25;;;;;;;7.10;1.75;;;;;;;;;;6864803;28;20042;-88
2021/05/09 11:34:50;;;;;;;4.85;1.83;;;;;;;;;;6852639;28;20041;-88
2021/05/09 11:38:14;;;;;;;3.20;1.60;;;;;;;;;;6865406;28;20046;-88
2021/05/09 11:41:54;;;;;;;4.70;1.80;;;;;;;;;;6863878;28;20050;-88
2021/05/09 11:45:15;;;;;;;3.38;1.50;;;;;;;;;;6864969;28;20085;-88
2021/05/09 11:48:35;;;;;;;2.97;1.45;;;;;;;;;;6872577;28;20038;-88
2021/05/09 11:52:01;;;;;;;1.30;1.20;;;;;;;;;;6876537;28;20041;-86
2021/05/09 11:55:22;;;;;;;3.08;1.70;;;;;;;;;;6870081;28;20102;-86
2021/05/09 11:58:44;;;;;;;3.70;1.65;;;;;;;;;;6862852;28;20042;-87
2021/05/09 12:02:20;;;;;;;4.43;1.50;;;;;;;;;;6861637;28;20097;-86
2021/05/09 12:05:41;;;;;;;1.85;1.40;;;;;;;;;;6862943;28;20045;-86
2021/05/09 12:09:02;;;;;;;5.55;1.42;;;;;;;;;;6862843;28;20388;-87
2021/05/09 12:12:23;;;;;;;4.90;1.80;;;;;;;;;;6846770;28;20468;-86
2021/05/09 12:15:44;;;;;;;3.17;1.42;;;;;;;;;;6861596;28;20035;-85
2021/05/09 12:19:08;;;;;;;4.68;1.58;;;;;;;;;;6865184;28;20039;-88
2021/05/09 12:22:37;;;;;;;4.55;1.77;;;;;;;;;;6845953;28;20042;-86
2021/05/09 12:25:58;;;;;;;5.22;1.55;;;;;;;;;;6862481;28;20113;-86
2021/05/09 12:29:19;;;;;;;14.02;2.35;;;;;;;;;;6858869;23;20455;-86
2021/05/09 12:32:40;;;;;;;17.15;2.30;;;;;;;;;;6871841;28;20086;-88
2021/05/09 12:36:17;;;;;;;8.25;2.20;;;;;;;;;;6863549;28;20546;-86
2021/05/09 12:39:37;;;;;;;3.63;1.63;;;;;;;;;;6863473;28;20031;-86
2021/05/09 12:43:09;;;;;;;8.23;2.17;;;;;;;;;;6864668;28;20066;-87
2021/05/09 12:46:32;;;;;;;9.35;1.90;;;;;;;;;;6864005;28;20027;-87
2021/05/09 12:49:57;;;;;;;4.82;1.65;;;;;;;;;;6870223;28;20425;-89
2021/05/09 12:53:40;;;;;;;7.38;1.48;;;;;;;;;;6864519;28;20023;-89
2021/05/09 12:57:23;;;;;;;2.92;1.63;;;;;;;;;;6867094;28;20078;-88
2021/05/09 13:00:44;;;;;;;3.70;1.63;;;;;;;;;;6866303;28;20435;-92
2021/05/09 13:04:28;;;;;;;2.72;1.40;;;;;;;;;;6864018;28;20476;-88
2021/05/09 13:07:49;;;;;;;3.17;1.75;;;;;;;;;;6863209;28;20477;-88
2021/05/09 13:11:09;;;;;;;5.57;1.40;;;;;;;;;;6868908;28;20035;-88
2021/05/09 13:14:44;;;;;;;3.85;1.80;;;;;;;;;;6876383;28;20042;-88
2021/05/09 13:18:07;;;;;;;2.30;1.38;;;;;;;;;;6877283;28;20084;-88
2021/05/09 13:21:27;;;;;;;3.83;1.48;;;;;;;;;;6874455;28;20117;-88
2021/05/09 13:24:48;;;;;;;1.83;1.20;;;;;;;;;;6869459;28;20030;-88
2021/05/09 13:28:08;;;;;;;4.25;1.92;;;;;;;;;;6868538;28;20050;-88
2021/05/09 13:31:29;;;;;;;3.00;1.45;;;;;;;;;;6868304;28;20049;-88
2021/05/09 13:34:49;;;;;;;3.05;1.55;;;;;;;;;;6879561;28;20038;-88
2021/05/09 13:38:10;;;;;;;2.22;1.23;;;;;;;;;;6868443;28;20062;-88
2021/05/09 13:41:30;;;;;;;6.38;1.95;;;;;;;;;;6876187;28;20045;-88
2021/05/09 13:44:50;;;;;;;5.60;1.58;;;;;;;;;;6870621;28;20051;-88
2021/05/09 13:48:11;;;;;;;2.83;1.60;;;;;;;;;;6868311;28;20029;-89
2021/05/09 13:51:31;;;;;;;1.88;1.48;;;;;;;;;;6869050;28;20058;-89
2021/05/09 13:54:52;;;;;;;3.83;1.45;;;;;;;;;;6867985;28;20031;-88
2021/05/09 13:58:13;;;;;;;2.08;1.50;;;;;;;;;;6868462;28;20050;-88
2021/05/09 14:01:34;;;;;;;1.73;1.63;;;;;;;;;;6870564;28;20038;-88
2021/05/09 14:04:54;;;;;;;11.38;2.03;;;;;;;;;;6867377;28;20035;-88
2021/05/09 14:08:15;;;;;;;3.70;1.75;;;;;;;;;;6867082;28;20110;-88
2021/05/09 14:11:35;;;;;;;4.60;1.67;;;;;;;;;;6867989;28;20440;-88
2021/05/09 14:14:56;;;;;;;2.83;2.30;;;;;;;;;;6867430;28;20117;-88
2021/05/09 14:18:17;;;;;;;3.45;2.20;;;;;;;;;;6867296;28;20101;-88
2021/05/09 14:21:38;;;;;;;2.13;1.58;;;;;;;;;;6869663;28;20109;-88
2021/05/09 14:24:58;;;;;;;3.88;1.70;;;;;;;;;;6867231;28;20059;-88
2021/05/09 14:28:19;;;;;;;2.92;1.52;;;;;;;;;;6867355;28;20118;-88
2021/05/09 14:31:39;;;;;;;3.40;1.70;;;;;;;;;;6868140;28;20391;-88
2021/05/09 14:34:59;;;;;;;5.78;1.80;;;;;;;;;;6866929;28;20488;-88
2021/05/09 14:38:20;;;;;;;6.78;1.40;;;;;;;;;;6866595;28;20042;-88
2021/05/09 14:41:40;;;;;;;2.85;1.52;;;;;;;;;;6866670;28;20173;-88
2021/05/09 14:45:01;;;;;;;5.35;1.50;;;;;;;;;;6866642;28;20035;-88
2021/05/09 14:48:22;;;;;;;5.22;1.38;;;;;;;;;;6867088;28;20077;-88
2021/05/09 14:51:42;;;;;;;2.40;1.40;;;;;;;;;;6874161;28;20061;-88
2021/05/09 14:55:04;;;;;;;2.25;1.25;;;;;;;;;;6866489;28;20038;-88
2021/05/09 14:58:24;;;;;;;1.65;1.20;;;;;;;;;;6866329;28;20042;-88
2021/05/09 15:01:45;;;;;;;2.15;1.23;;;;;;;;;;6858089;28;20070;-88
2021/05/09 15:05:07;;;;;;;2.63;1.48;;;;;;;;;;6866437;28;20038;-88
2021/05/09 15:08:27;;;;;;;1.48;1.05;;;;;;;;;;6866476;28;20034;-88
2021/05/09 15:11:47;;;;;;;2.55;1.30;;;;;;;;;;6876460;28;20054;-88
2021/05/09 15:15:08;;;;;;;3.17;1.23;;;;;;;;;;6866173;28;20055;-88
2021/05/09 15:18:29;;;;;;;4.32;1.40;;;;;;;;;;6865736;28;20034;-88
2021/05/09 15:21:49;;;;;;;1.77;1.20;;;;;;;;;;6878224;28;20077;-88
2021/05/09 15:25:10;;;;;;;2.22;1.40;;;;;;;;;;6865723;28;20371;-88
2021/05/09 15:28:31;;;;;;;3.08;1.10;;;;;;;;;;6868850;28;20038;-88
2021/05/09 15:31:54;;;;;;;1.67;1.27;;;;;;;;;;6874411;28;20392;-88
2021/05/09 15:35:15;;;;;;;2.95;1.33;;;;;;;;;;6865754;28;20038;-88
2021/05/09 15:38:36;;;;;;;3.97;1.40;;;;;;;;;;6865133;28;20114;-89
2021/05/09 15:41:57;;;;;;;3.28;1.35;;;;;;;;;;6862818;28;20528;-88
2021/05/09 15:45:18;;;;;;;2.47;1.20;;;;;;;;;;6864880;28;20437;-88
2021/05/09 15:48:38;;;;;;;1.15;1.08;;;;;;;;;;6865339;28;20042;-88
2021/05/09 15:51:59;;;;;;;1.35;1.17;;;;;;;;;;6864906;28;20035;-88
2021/05/09 15:55:20;;;;;;;4.82;1.30;;;;;;;;;;6864579;28;20089;-88
2021/05/09 15:58:40;;;;;;;2.63;1.23;;;;;;;;;;6864817;28;20066;-88
2021/05/09 16:02:00;;;;;;;3.08;1.35;;;;;;;;;;6863931;28;20491;-88
2021/05/09 16:05:21;;;;;;;3.88;1.10;;;;;;;;;;6863789;28;20504;-88
2021/05/09 16:08:43;;;;;;;2.28;1.10;;;;;;;;;;6863852;28;20031;-88
2021/05/09 16:12:05;;;;;;;3.25;1.10;;;;;;;;;;6864475;28;20037;-88
2021/05/09 16:15:26;;;;;;;1.88;0.93;;;;;;;;;;6868073;28;20037;-88
2021/05/09 16:18:47;;;;;;;2.40;1.40;;;;;;;;;;6869539;28;20365;-89
2021/05/09 16:22:07;;;;;;;4.72;1.30;;;;;;;;;;6864084;28;20483;-88
2021/05/09 16:25:27;;;;;;;2.28;1.25;;;;;;;;;;6867434;28;20089;-88
2021/05/09 16:28:48;;;;;;;4.25;1.20;;;;;;;;;;6870240;28;20078;-88
2021/05/09 16:32:09;;;;;;;4.18;1.30;;;;;;;;;;6863934;28;20479;-88
2021/05/09 16:35:29;;;;;;;3.67;1.73;;;;;;;;;;6864081;28;20039;-88
2021/05/09 16:38:49;;;;;;;2.03;1.20;;;;;;;;;;6864209;28;20038;-88
2021/05/09 16:42:10;;;;;;;1.40;1.30;;;;;;;;;;6864013;28;20070;-88
2021/05/09 16:45:30;;;;;;;2.65;1.20;;;;;;;;;;6867514;28;20117;-88
2021/05/09 16:48:51;;;;;;;3.17;1.30;;;;;;;;;;6879068;28;20030;-88
2021/05/09 16:52:14;;;;;;;1.65;1.30;;;;;;;;;;6863788;28;20480;-88
2021/05/09 16:55:34;;;;;;;3.63;1.10;;;;;;;;;;6867427;28;20058;-88
2021/05/09 16:58:55;;;;;;;2.38;1.30;;;;;;;;;;6863992;28;20031;-88
2021/05/09 17:02:15;;;;;;;6.45;1.38;;;;;;;;;;6864191;28;20027;-88
2021/05/09 17:05:36;;;;;;;7.35;1.30;;;;;;;;;;6863657;28;20038;-87
2021/05/09 17:09:00;;;;;;;3.15;1.30;;;;;;;;;;6864587;28;20058;-83
2021/05/09 17:12:24;;;;;;;2.83;1.40;;;;;;;;;;6862824;28;20456;-83
2021/05/09 17:15:44;;;;;;;3.00;1.10;;;;;;;;;;6863991;28;20027;-83
2021/05/09 17:19:04;;;;;;;1.40;1.10;;;;;;;;;;6866907;28;20054;-83
2021/05/09 17:22:25;;;;;;;3.75;1.38;;;;;;;;;;6875950;28;20129;-84
2021/05/09 17:25:46;;;;;;;2.42;1.17;;;;;;;;;;6868083;28;20380;-84
2021/05/09 17:29:06;;;;;;;7.65;2.50;;;;;;;;;;6852098;28;20174;-84
2021/05/09 17:32:27;;;;;;;10.98;2.03;;;;;;;;;;6861809;28;20169;-85
2021/05/09 17:35:47;;;;;;;8.88;1.63;;;;;;;;;;6867346;28;20376;-84
2021/05/09 17:39:11;;;;;;;2.63;1.33;;;;;;;;;;6863082;28;20057;-84
2021/05/09 17:42:31;;;;;;;5.30;1.55;;;;;;;;;;6862218;28;20043;-84
2021/05/09 17:45:52;;;;;;;2.85;1.15;;;;;;;;;;6866880;28;20036;-85
2021/05/09 17:49:12;;;;;;;5.28;1.42;;;;;;;;;;6870779;28;20055;-84
2021/05/09 17:52:33;;;;;;;3.25;1.30;;;;;;;;;;6863392;28;20492;-84
2021/05/09 17:55:54;;;;;;;3.88;1.65;;;;;;;;;;6870183;28;20030;-84
2021/05/09 17:59:14;;;;;;;8.85;1.40;;;;;;;;;;6867690;28;20477;-85
2021/05/09 18:02:35;;;;;;;11.43;1.40;;;;;;;;;;6867675;28;20047;-85
2021/05/09 18:05:55;;;;;;;7.90;1.20;;;;;;;;;;6868218;28;20113;-85
2021/05/09 18:09:16;;;;;;;3.60;1.38;;;;;;;;;;6866863;28;20070;-85
2021/05/09 18:12:40;;;;;;;2.60;1.27;;;;;;;;;;6868979;28;20033;-85
2021/05/09 18:16:10;;;;;;;3.70;1.27;;;;;;;;;;6867482;28;20447;-85
2021/05/09 18:23:03;;;;;;;1.83;1.20;;;;;;;;;;6867195;28;20035;-85
2021/05/09 18:26:23;;;;;;;3.08;1.20;;;;;;;;;;6866546;28;20037;-85
2021/05/09 18:29:44;;;;;;;2.05;1.10;;;;;;;;;;6874510;28;20042;-86
2021/05/09 18:33:04;;;;;;;5.15;1.48;;;;;;;;;;6869941;28;20030;-86
2021/05/09 18:36:25;;;;;;;3.35;1.20;;;;;;;;;;6867458;28;20035;-86
2021/05/09 18:39:45;;;;;;;7.78;1.42;;;;;;;;;;6865741;28;20114;-85
2021/05/09 18:43:06;;;;;;;3.70;1.48;;;;;;;;;;6866382;28;20077;-85
2021/05/09 18:46:26;;;;;;;2.80;1.17;;;;;;;;;;6867115;28;20097;-85
2021/05/09 18:49:46;;;;;;;2.53;1.33;;;;;;;;;;6865007;28;20109;-85
2021/05/09 18:53:07;;;;;;;3.25;1.50;;;;;;;;;;6867764;28;20041;-85
2021/05/09 18:56:27;;;;;;;3.80;1.40;;;;;;;;;;6872261;28;20030;-85
2021/05/09 18:59:48;;;;;;;2.20;1.23;;;;;;;;;;6875460;28;20045;-86
2021/05/09 19:03:09;;;;;;;5.55;1.33;;;;;;;;;;6867828;28;20037;-85
2021/05/09 19:06:33;;;;;;;3.70;1.27;;;;;;;;;;6875861;28;20038;-86
2021/05/09 19:09:53;;;;;;;2.92;1.50;;;;;;;;;;6865782;28;20081;-85
2021/05/09 19:13:14;;;;;;;4.70;1.40;;;;;;;;;;6866522;28;21368;-85
2021/05/09 19:16:34;;;;;;;2.22;1.10;;;;;;;;;;6866342;28;20019;-85
2021/05/09 19:19:55;;;;;;;5.32;1.38;;;;;;;;;;6874154;28;20023;-86
2021/05/09 19:23:15;;;;;;;3.92;1.48;;;;;;;;;;6866672;28;20097;-85
2021/05/09 19:26:36;;;;;;;7.63;1.10;;;;;;;;;;6867654;28;20046;-86
2021/05/09 19:29:56;;;;;;;5.10;1.35;;;;;;;;;;6864632;28;20049;-86
2021/05/09 19:33:17;;;;;;;5.07;1.27;;;;;;;;;;6880529;28;20049;-85
2021/05/09 19:36:37;;;;;;;5.95;1.80;;;;;;;;;;6864232;28;20388;-85
2021/05/09 19:39:57;;;;;;;11.25;1.67;;;;;;;;;;6863932;28;20473;-85
2021/05/09 19:43:18;;;;;;;6.15;1.52;;;;;;;;;;6865166;28;20403;-86
2021/05/09 19:46:38;;;;;;;3.00;1.45;;;;;;;;;;6862302;28;20114;-87
2021/05/09 19:49:59;;;;;;;4.20;1.80;;;;;;;;;;6865941;28;20026;-84
2021/05/09 19:53:20;;;;;;;3.28;1.92;;;;;;;;;;6848891;28;20062;-85
2021/05/09 19:56:40;;;;;;;4.95;2.25;;;;;;;;;;6864376;28;20026;-85
2021/05/09 20:00:01;;;;;;;5.30;3.00;;;;;;;;;;6870404;28;20061;-85
2021/05/09 20:03:22;;;;;;;3.83;2.45;;;;;;;;;;6883093;28;20030;-85
2021/05/09 20:06:42;;;;;;;8.13;2.45;;;;;;;;;;6865393;28;20117;-85
2021/05/09 20:10:04;;;;;;;3.58;2.10;;;;;;;;;;6877739;28;20030;-85
2021/05/09 20:13:25;;;;;;;5.60;2.35;;;;;;;;;;6881976;28;20034;-85